首页
METAR-TAF:

METAR-TAF

机场 :

蓋恩斯維爾, 佛罗里达州, 美国

纬度: 29-41-31N, 经度: 082-16-32W, 海拔: 46米

当前天气观测

该预报发布于31分钟前的19:53 UTC
风速4节,风向
温度 13°C
湿度 72%
气压 1014 hPa
能見度: 16.1公里
阴天层高于1900英尺

METAR: KGNV 171953Z 36004KT 10SM OVC019 13/08 A2993 RMK AO2 SLP135 T01280078

时间: 15:24 (20:24 UTC)

预报

该预报发布于10分钟前的20:14 UTC
预报有效从17日的 20点(UTC)到 18日的 18点(UTC)
风速6节,风向
能見度: 10公里
多云层高于2000英尺
从 17日的 2100点(UTC)
风速3节,风向北转东北
能見度: 10公里
散云层高于2500英尺
散云层高于25000英尺
从 18日的 1500点(UTC)
风速5节,风向西转西北
能見度: 10公里
天空无云

TAF: KGNV 172014Z 1720/1818 36006KT P6SM BKN020 FM172100 02003KT P6SM SCT025 SCT250 FM181500 30005KT P6SM SKC

超过4000个机场的气象观测和天气预报(METAR&TAF报告)。

可查询的气象台以黄色和红色小点在地图上表示。

将鼠标移到小点上方,可查看气象台名称。

然后点击查看天气观测和预报。

如需切换地图:点击带黑十字的绿色按钮放大地图;点击带横线的绿色按钮缩小地图;或者点击绿色箭头查看邻近地区的地图。


METAR-TAF: